Terminal Aerodrome Forecast
Issued by NWS

Home | Current Version | Previous Version | Text Only | Print | Product List | Glossary On
Versions: 1 2 3 4 5 6 7 8 9 10 11 12 13 14 15 16 17 18 19 20 21 22 23 24 25 26 27 28 29 30 31 32
000
FTUS45 KBOI 220525
TAFTWF
TAF
KTWF 220525Z 2206/2306 24015KT P6SM VCSH SCT040 OVC060
      TEMPO 2206/2208 -SHRA SCT015 OVC025
     FM221700 24020G30KT P6SM SCT040 BKN060
     FM230400 24013KT P6SM SCT080=

USA.gov is the U.S. government's official web portal to all federal, state and local government web resources and services.